createdAt,value
2023-01-29T00:05:29.761Z,49
2023-01-29T00:15:37.926Z,49
2023-01-29T00:25:46.185Z,49
2023-01-29T00:35:54.302Z,49
2023-01-29T00:46:02.417Z,49
2023-01-29T00:56:10.426Z,50
2023-01-29T01:06:18.527Z,50
2023-01-29T01:16:26.585Z,50
2023-01-29T01:26:34.696Z,50
2023-01-29T01:36:42.825Z,51
2023-01-29T01:46:52.482Z,52
2023-01-29T01:57:00.864Z,53
2023-01-29T02:07:08.863Z,54
2023-01-29T02:17:17.067Z,53
2023-01-29T02:27:25.329Z,53
2023-01-29T02:37:34.266Z,53
2023-01-29T02:47:33.587Z,53
2023-01-29T02:57:41.972Z,53
2023-01-29T03:07:50.055Z,53
2023-01-29T03:17:58.101Z,53
2023-01-29T03:28:06.246Z,54
2023-01-29T03:38:14.357Z,55
2023-01-29T03:48:22.512Z,54
2023-01-29T03:58:32.203Z,54
2023-01-29T04:08:40.468Z,53
2023-01-29T04:18:48.550Z,53
2023-01-29T04:28:56.440Z,53
2023-01-29T04:39:04.431Z,53
2023-01-29T04:49:12.033Z,53
2023-01-29T04:59:19.990Z,53
2023-01-29T05:09:27.956Z,53
2023-01-29T05:19:35.891Z,53
2023-01-29T05:29:44.050Z,52
2023-01-29T05:39:52.127Z,53
2023-01-29T05:50:00.081Z,53
2023-01-29T06:00:08.186Z,53
2023-01-29T06:10:16.388Z,53
2023-01-29T06:20:24.181Z,53
2023-01-29T06:30:32.248Z,53
2023-01-29T06:40:40.197Z,54
2023-01-29T06:50:48.341Z,54
2023-01-29T07:00:56.640Z,54
2023-01-29T07:11:04.597Z,55
2023-01-29T07:21:12.540Z,55
2023-01-29T07:31:20.544Z,56
2023-01-29T07:41:28.283Z,56
2023-01-29T07:51:36.293Z,55
2023-01-29T08:01:44.210Z,54
2023-01-29T08:11:52.350Z,52
2023-01-29T08:22:00.466Z,50
2023-01-29T08:32:08.488Z,49
2023-01-29T08:42:16.526Z,47
2023-01-29T08:52:24.488Z,47
2023-01-29T09:02:32.543Z,46
2023-01-29T09:12:40.472Z,47
2023-01-29T09:22:48.447Z,47
2023-01-29T09:32:56.109Z,46
2023-01-29T09:43:04.031Z,45
2023-01-29T09:53:11.979Z,46
2023-01-29T10:03:20.025Z,46
2023-01-29T10:13:28.077Z,43
2023-01-29T10:23:35.501Z,44
2023-01-29T10:33:48.888Z,44
2023-01-29T10:43:50.297Z,43
2023-01-29T10:53:50.844Z,43
2023-01-29T11:03:58.746Z,42
2023-01-29T11:14:07.648Z,41
2023-01-29T11:24:15.623Z,40
2023-01-29T11:34:23.627Z,40
2023-01-29T11:44:31.788Z,40
2023-01-29T11:54:40.458Z,39
2023-01-29T12:04:48.614Z,38
2023-01-29T12:14:56.675Z,37
2023-01-29T12:25:04.505Z,35
2023-01-29T12:38:16.386Z,33
2023-01-29T12:47:30.357Z,33
2023-01-29T13:07:43.829Z,34
2023-01-29T13:17:45.923Z,33
2023-01-29T13:27:37.764Z,33
2023-01-29T13:37:46.292Z,33
2023-01-29T13:47:58.207Z,34
2023-01-29T13:58:01.205Z,38
2023-01-29T14:08:06.044Z,36
2023-01-29T14:18:14.070Z,38
2023-01-29T14:38:19.991Z,39
2023-01-29T14:48:18.455Z,39
2023-01-29T14:58:26.805Z,41
2023-01-29T15:08:26.948Z,43
2023-01-29T15:18:34.708Z,44
2023-01-29T15:28:35.397Z,46
2023-01-29T15:38:43.959Z,46
2023-01-29T15:48:51.790Z,46
2023-01-29T15:58:59.730Z,47
2023-01-29T16:09:06.671Z,47
2023-01-29T16:19:14.568Z,47
2023-01-29T16:29:22.663Z,47
2023-01-29T16:39:30.867Z,48
2023-01-29T16:49:38.766Z,49
2023-01-29T16:59:43.255Z,51
2023-01-29T17:09:46.816Z,51
2023-01-29T17:19:53.992Z,51
2023-01-29T17:30:01.690Z,50
2023-01-29T17:40:00.642Z,51
2023-01-29T17:50:03.736Z,51
2023-01-29T18:00:19.847Z,51
2023-01-29T18:10:19.342Z,51
2023-01-29T18:20:27.648Z,52
2023-01-29T18:30:36.222Z,52
2023-01-29T18:40:45.628Z,53
2023-01-29T18:50:50.506Z,54
2023-01-29T19:07:17.491Z,54
2023-01-29T19:30:57.386Z,54
2023-01-29T19:41:02.685Z,54
2023-01-29T19:51:02.453Z,54
2023-01-29T20:01:12.992Z,53
2023-01-29T20:11:15.295Z,53
2023-01-29T20:21:24.977Z,54
2023-01-29T20:31:34.625Z,53
2023-01-29T20:41:43.142Z,52
2023-01-29T20:51:52.116Z,51
2023-01-29T21:02:00.100Z,51
2023-01-29T21:12:08.001Z,51
2023-01-29T21:22:17.504Z,52
2023-01-29T21:32:20.533Z,52
2023-01-29T21:42:19.442Z,52
2023-01-29T21:52:27.597Z,51
2023-01-29T22:02:35.532Z,51
2023-01-29T22:12:42.987Z,51
2023-01-29T22:22:51.008Z,51
2023-01-29T22:32:59.123Z,51
2023-01-29T22:43:07.095Z,51
2023-01-29T22:53:15.117Z,51
2023-01-29T23:03:23.079Z,51
2023-01-29T23:13:31.113Z,50
2023-01-29T23:23:39.024Z,50
2023-01-29T23:33:46.815Z,50
2023-01-29T23:43:54.667Z,50
2023-01-29T23:54:02.562Z,50
